ADDS METAR Data INFO
IDs: Format: Raw Decoded Include TAF

Data at: 1508 UTC 21 Feb 2018

KVUJ 211435Z AUTO 19006KT 10SM BKN009 BKN027 OVC075 20/18 A3051 RMK AO2 T01990182
KVUJ 211415Z AUTO 18005KT 10SM BKN007 OVC027 20/18 A3051 RMK AO2 T01950182
KVUJ 211355Z AUTO 18007KT 10SM BKN005 OVC027 19/18 A3051 RMK AO2 T01900182
KVUJ 211335Z AUTO 17005KT 10SM BKN005 BKN024 OVC029 19/18 A3051 RMK AO2 T01860182
KVUJ 211315Z AUTO 19004KT 10SM BKN005 BKN018 OVC031 18/18 A3051 RMK AO2 T01830180
KVUJ 211255Z AUTO 18003KT 10SM SCT005 BKN027 OVC033 18/18 A3051 RMK AO2 T01800178
KVUJ 201515Z AUTO 00000KT 1/4SM FG OVC003 14/14 A3051 RMK AO2 T01360136
KVUJ 201455Z AUTO 00000KT M1/4SM FG OVC003 13/13 A3051 RMK AO2 T01310131
KVUJ 201435Z AUTO 00000KT M1/4SM FG OVC003 13/13 A3051 RMK AO2 T01270127
KVUJ 201415Z AUTO 00000KT M1/4SM FG OVC003 13/13 A3051 RMK AO2 T01250125
KVUJ 201355Z AUTO 00000KT M1/4SM FG OVC003 12/12 A3051 RMK AO2 T01230123
KVUJ 201335Z AUTO 00000KT M1/4SM FG OVC003 12/12 A3051 RMK AO2 LTG DSNT SW T01200120
KVUJ 201315Z AUTO 00000KT M1/4SM FG OVC003 12/12 A3050 RMK AO2 LTG DSNT SW T01170117
KVUJ 201255Z AUTO 00000KT M1/4SM FG OVC003 12/12 A3050 RMK AO2 T01160116
KVUJ 201235Z AUTO 00000KT M1/4SM FG OVC003 12/12 A3050 RMK AO2 T01150115
KVUJ 201215Z AUTO 00000KT M1/4SM FG OVC003 12/12 A3048 RMK AO2 T01150115
KVUJ 201155Z AUTO 00000KT 1/4SM FG OVC003 12/12 A3048 RMK AO2 60001 70001 T01150115 10115 20104
KVUJ 201135Z AUTO 00000KT 1/4SM FG OVC003 11/11 A3048 RMK AO2 T01130113
KVUJ 201115Z AUTO 00000KT 1/4SM FG OVC003 12/12 A3047 RMK AO2 T01150115
KVUJ 201055Z AUTO 00000KT 1/4SM FG OVC003 11/11 A3047 RMK AO2 P0001 T01130113
KVUJ 201035Z AUTO 00000KT 1/4SM FG OVC003 11/11 A3046 RMK AO2 LTG DSNT NW P0001 T01120112
KVUJ 201015Z AUTO 00000KT 1/4SM FG OVC003 11/11 A3045 RMK AO2 LTG DSNT NW P0001 T01120112
KVUJ 200955Z AUTO 00000KT 1/4SM FG OVC003 11/11 A3045 RMK AO2 T01130113
KVUJ 200935Z AUTO 00000KT 1/4SM FG OVC003 11/11 A3045 RMK AO2 T01120112
KVUJ 200915Z AUTO 00000KT 1/4SM FG OVC003 11/11 A3045 RMK AO2 LTG DSNT W T01120112
KVUJ 200855Z AUTO 00000KT 1/4SM FG OVC003 11/11 A3044 RMK AO2 T01100110
KVUJ 200835Z AUTO 00000KT 1/4SM FG OVC003 11/11 A3045 RMK AO2 T01090109
KVUJ 200815Z AUTO 00000KT 1/4SM FG OVC003 11/11 A3044 RMK AO2 T01080108
KVUJ 200755Z AUTO 00000KT 1/2SM FG OVC003 11/11 A3045 RMK AO2 T01070107
KVUJ 200735Z AUTO 00000KT 1/2SM FG OVC003 11/11 A3045 RMK AO2 T01070107
KVUJ 200715Z AUTO 00000KT 1SM BR OVC003 11/11 A3046 RMK AO2 T01070107
KVUJ 200655Z AUTO 00000KT 2 1/2SM BR OVC003 11/11 A3046 RMK AO2 T01070107
KVUJ 200635Z AUTO 00000KT 5SM BR OVC005 11/11 A3047 RMK AO2 T01070107
KVUJ 200615Z AUTO 00000KT 1 1/4SM BR SCT002 OVC009 11/11 A3047 RMK AO2 T01060106
KVUJ 200555Z AUTO 00000KT 1/4SM FG OVC002 10/10 A3047 RMK AO2 T01030103 10110 20102
KVUJ 200535Z AUTO 00000KT 1/4SM FG OVC002 10/10 A3047 RMK AO2 LTG DSNT W T01030103
KVUJ 200515Z AUTO 00000KT 1/4SM FG 11/11 A3047 RMK AO2 LTG DSNT W T01050105
KVUJ 200455Z AUTO 00000KT 1/4SM FG 11/11 A3047 RMK AO2 T01050105 401260075
KVUJ 200435Z AUTO 00000KT 1/4SM FG OVC002 11/11 A3047 RMK AO2 T01060106
KVUJ 200415Z AUTO 00000KT 1/4SM FG OVC002 11/11 A3047 RMK AO2 T01070107
KVUJ 200355Z AUTO 00000KT 1/4SM FG OVC002 11/11 A3047 RMK AO2 T01090109
KVUJ 200335Z AUTO 00000KT 1SM BR OVC002 11/11 A3047 RMK AO2 T01090109
KVUJ 200315Z AUTO 00000KT 3/4SM BR OVC002 11/11 A3047 RMK AO2 T01080108